Time;durP1;ratioP1;P1;durP2;ratioP2;P2;SDS_P1;SDS_P2;PMS_P1;PMS_P2;Temp;Humidity;BMP_temperature;BMP_pressure;BME280_temperature;BME280_humidity;BME280_pressure;Samples;Min_cycle;Max_cycle;Signal;HPM_P1;HPM_P2
2023/05/23 00:01:41;;;;;;;31.25;18.85;;;;;;;;;;5028320;28;20048;-71
2023/05/23 00:04:08;;;;;;;28.67;19.75;;;;;;;;;;5033876;28;20017;-70
2023/05/23 00:06:35;;;;;;;26.27;19.23;;;;;;;;;;5033965;28;20120;-71
2023/05/23 00:09:01;;;;;;;27.40;19.85;;;;;;;;;;5033901;28;20418;-71
2023/05/23 00:11:28;;;;;;;31.05;21.85;;;;;;;;;;5033875;28;20068;-72
2023/05/23 00:13:54;;;;;;;25.70;20.88;;;;;;;;;;5034819;28;20025;-70
2023/05/23 00:16:21;;;;;;;32.45;22.52;;;;;;;;;;5036224;28;20100;-70
2023/05/23 00:18:49;;;;;;;29.58;21.75;;;;;;;;;;5036843;28;20108;-70
2023/05/23 00:21:18;;;;;;;28.35;21.42;;;;;;;;;;5033898;28;20017;-71
2023/05/23 00:23:44;;;;;;;27.70;22.58;;;;;;;;;;5033514;28;20024;-72
2023/05/23 00:26:10;;;;;;;31.75;21.67;;;;;;;;;;5033669;28;20025;-71
2023/05/23 00:28:37;;;;;;;33.03;22.92;;;;;;;;;;5033515;28;20029;-71
2023/05/23 00:31:03;;;;;;;33.25;23.90;;;;;;;;;;5036155;28;20025;-70
2023/05/23 00:33:31;;;;;;;32.03;24.33;;;;;;;;;;5035502;28;20079;-71
2023/05/23 00:35:57;;;;;;;35.78;24.60;;;;;;;;;;5036489;28;20021;-71
2023/05/23 00:38:23;;;;;;;34.90;24.63;;;;;;;;;;5036621;28;20036;-70
2023/05/23 00:40:49;;;;;;;39.38;26.95;;;;;;;;;;5036085;28;20416;-70
2023/05/23 00:43:15;;;;;;;33.08;25.80;;;;;;;;;;5036159;28;20021;-71
2023/05/23 00:45:41;;;;;;;35.88;25.73;;;;;;;;;;5036067;28;20029;-70
2023/05/23 00:48:07;;;;;;;38.78;24.25;;;;;;;;;;5034924;28;20025;-70
2023/05/23 00:50:35;;;;;;;35.47;26.00;;;;;;;;;;5035993;28;20427;-69
2023/05/23 00:53:01;;;;;;;35.58;23.05;;;;;;;;;;5033092;28;20022;-71
2023/05/23 00:55:28;;;;;;;39.00;24.48;;;;;;;;;;5033089;28;20033;-71
2023/05/23 00:57:55;;;;;;;32.80;22.45;;;;;;;;;;5033044;28;20462;-71
2023/05/23 01:00:23;;;;;;;29.73;22.67;;;;;;;;;;5032839;28;20031;-70
2023/05/23 01:02:50;;;;;;;34.88;20.90;;;;;;;;;;5032632;28;20541;-70
2023/05/23 01:05:16;;;;;;;35.85;24.05;;;;;;;;;;5032907;28;20028;-71
2023/05/23 01:07:45;;;;;;;31.90;24.92;;;;;;;;;;5033148;28;20034;-71
2023/05/23 01:10:12;;;;;;;33.83;24.88;;;;;;;;;;5033605;28;20142;-70
2023/05/23 01:12:45;;;;;;;33.53;23.92;;;;;;;;;;5032505;28;20547;-69
2023/05/23 01:15:12;;;;;;;35.10;25.15;;;;;;;;;;5033224;28;20025;-69
2023/05/23 01:17:41;;;;;;;34.15;26.45;;;;;;;;;;5033147;28;20064;-69
2023/05/23 01:20:20;;;;;;;33.92;24.70;;;;;;;;;;5032995;28;20017;-70
2023/05/23 01:22:49;;;;;;;35.80;25.75;;;;;;;;;;5029875;28;20032;-69
2023/05/23 01:25:25;;;;;;;32.08;25.30;;;;;;;;;;5032140;28;20495;-69
2023/05/23 01:27:53;;;;;;;36.58;25.92;;;;;;;;;;5032581;28;20571;-69
2023/05/23 01:30:20;;;;;;;32.17;26.15;;;;;;;;;;5033298;28;20037;-70
2023/05/23 01:32:47;;;;;;;36.75;26.60;;;;;;;;;;5033090;28;20111;-71
2023/05/23 01:35:14;;;;;;;32.17;24.80;;;;;;;;;;5032985;28;20110;-70
2023/05/23 01:37:40;;;;;;;30.80;23.77;;;;;;;;;;5032248;28;20483;-72
2023/05/23 01:40:08;;;;;;;33.58;24.42;;;;;;;;;;5032303;28;20282;-72
2023/05/23 01:42:34;;;;;;;33.30;25.40;;;;;;;;;;5032089;28;20048;-71
2023/05/23 01:45:00;;;;;;;34.22;24.33;;;;;;;;;;5032173;28;20103;-71
2023/05/23 01:47:26;;;;;;;27.42;20.02;;;;;;;;;;5031988;28;20061;-71
2023/05/23 01:49:52;;;;;;;26.85;19.45;;;;;;;;;;5031811;28;20029;-71
2023/05/23 01:52:18;;;;;;;26.35;19.55;;;;;;;;;;5031988;28;20029;-71
2023/05/23 01:54:48;;;;;;;27.40;19.33;;;;;;;;;;5031998;28;20112;-71
2023/05/23 01:57:14;;;;;;;33.42;25.77;;;;;;;;;;5031928;28;20112;-71
2023/05/23 01:59:39;;;;;;;33.78;26.25;;;;;;;;;;5031969;28;20048;-70
2023/05/23 02:02:06;;;;;;;42.42;29.73;;;;;;;;;;5031076;28;20437;-69
2023/05/23 02:04:31;;;;;;;40.08;32.55;;;;;;;;;;5030946;28;20056;-71
2023/05/23 02:06:57;;;;;;;41.40;35.55;;;;;;;;;;5032284;28;20068;-71
2023/05/23 02:09:23;;;;;;;45.92;36.55;;;;;;;;;;5032169;28;20044;-70
2023/05/23 02:11:49;;;;;;;44.60;36.95;;;;;;;;;;5031783;28;20029;-71
2023/05/23 02:14:17;;;;;;;52.58;41.35;;;;;;;;;;5031384;28;20116;-71
2023/05/23 02:16:43;;;;;;;57.10;42.53;;;;;;;;;;5031620;28;20505;-71
2023/05/23 02:19:09;;;;;;;58.67;44.42;;;;;;;;;;5031536;28;20364;-71
2023/05/23 02:21:35;;;;;;;67.80;47.55;;;;;;;;;;5031554;28;20104;-71
2023/05/23 02:24:01;;;;;;;70.53;49.70;;;;;;;;;;5030705;28;20133;-73
2023/05/23 02:26:27;;;;;;;68.57;47.03;;;;;;;;;;5031140;28;20033;-74
2023/05/23 02:28:53;;;;;;;79.95;50.92;;;;;;;;;;5031216;28;20025;-72
2023/05/23 02:31:20;;;;;;;85.88;53.45;;;;;;;;;;5030606;28;20022;-72
2023/05/23 02:33:46;;;;;;;86.93;53.88;;;;;;;;;;5030263;28;20473;-70
2023/05/23 02:36:12;;;;;;;77.07;50.70;;;;;;;;;;5030537;28;20037;-70
2023/05/23 02:38:38;;;;;;;83.07;53.10;;;;;;;;;;5030158;28;20082;-69
2023/05/23 02:41:04;;;;;;;86.88;55.13;;;;;;;;;;5030435;28;20030;-69
2023/05/23 02:43:30;;;;;;;85.57;52.58;;;;;;;;;;5030815;28;20036;-69
2023/05/23 02:45:57;;;;;;;95.90;53.55;;;;;;;;;;5030872;28;20018;-70
2023/05/23 02:48:22;;;;;;;87.13;53.80;;;;;;;;;;5029971;28;20520;-70
2023/05/23 02:50:48;;;;;;;84.57;52.33;;;;;;;;;;5029974;28;20093;-70
2023/05/23 02:53:15;;;;;;;101.20;57.53;;;;;;;;;;5030012;28;20325;-71
2023/05/23 02:55:41;;;;;;;85.80;53.35;;;;;;;;;;5030262;28;20598;-71
2023/05/23 02:58:07;;;;;;;90.60;52.28;;;;;;;;;;5029807;28;20034;-71
2023/05/23 03:00:33;;;;;;;88.97;56.10;;;;;;;;;;5029935;28;20026;-70
2023/05/23 03:03:00;;;;;;;88.50;49.63;;;;;;;;;;5029833;28;20364;-70
2023/05/23 03:05:26;;;;;;;81.90;50.38;;;;;;;;;;5030096;28;20022;-70
2023/05/23 03:07:53;;;;;;;77.53;49.13;;;;;;;;;;5030063;28;20037;-70
2023/05/23 03:10:19;;;;;;;78.93;47.83;;;;;;;;;;5030159;28;20082;-70
2023/05/23 03:12:46;;;;;;;94.78;51.75;;;;;;;;;;5030234;28;20033;-70
2023/05/23 03:15:12;;;;;;;79.68;48.90;;;;;;;;;;5029967;28;20541;-69
2023/05/23 03:17:38;;;;;;;79.15;47.50;;;;;;;;;;5029819;28;20026;-70
2023/05/23 03:20:08;;;;;;;88.57;47.75;;;;;;;;;;5030028;28;20021;-70
2023/05/23 03:22:34;;;;;;;79.75;46.35;;;;;;;;;;5029632;28;20018;-71
2023/05/23 03:25:00;;;;;;;74.60;43.90;;;;;;;;;;5029724;28;20025;-69
2023/05/23 03:27:26;;;;;;;72.18;41.85;;;;;;;;;;5029733;28;20629;-70
2023/05/23 03:29:52;;;;;;;78.70;43.97;;;;;;;;;;5029778;28;20021;-69
2023/05/23 03:32:18;;;;;;;70.13;42.30;;;;;;;;;;5030018;28;20108;-70
2023/05/23 03:34:44;;;;;;;73.13;42.50;;;;;;;;;;5030126;28;20061;-69
2023/05/23 03:37:10;;;;;;;76.25;44.67;;;;;;;;;;5029788;28;20021;-69
2023/05/23 03:39:36;;;;;;;75.78;43.63;;;;;;;;;;5031114;28;20025;-69
2023/05/23 03:42:02;;;;;;;83.63;45.33;;;;;;;;;;5031394;28;20520;-71
2023/05/23 03:44:28;;;;;;;71.15;43.53;;;;;;;;;;5030667;28;20025;-70
2023/05/23 03:46:54;;;;;;;79.65;42.75;;;;;;;;;;5030826;28;20475;-70
2023/05/23 03:49:20;;;;;;;76.38;43.92;;;;;;;;;;5036393;28;20209;-71
2023/05/23 03:51:46;;;;;;;80.38;44.20;;;;;;;;;;5040350;28;20030;-70
2023/05/23 03:54:12;;;;;;;83.43;44.58;;;;;;;;;;5038366;28;20336;-71
2023/05/23 03:56:38;;;;;;;79.95;45.30;;;;;;;;;;5034558;28;20033;-73
2023/05/23 03:59:04;;;;;;;89.28;47.60;;;;;;;;;;5034094;28;20028;-71
2023/05/23 04:01:30;;;;;;;84.50;43.92;;;;;;;;;;5034140;28;20510;-71
2023/05/23 04:03:56;;;;;;;88.72;46.50;;;;;;;;;;5033938;28;20017;-73
2023/05/23 04:06:23;;;;;;;82.70;44.53;;;;;;;;;;5035079;28;20029;-70
2023/05/23 04:08:49;;;;;;;90.63;48.92;;;;;;;;;;5034151;28;20112;-70
2023/05/23 04:11:15;;;;;;;79.90;47.67;;;;;;;;;;5034549;28;20060;-72
2023/05/23 04:13:42;;;;;;;90.28;46.85;;;;;;;;;;5034364;28;20496;-68
2023/05/23 04:16:08;;;;;;;85.75;46.35;;;;;;;;;;5034612;28;20038;-70
2023/05/23 04:18:37;;;;;;;90.18;47.75;;;;;;;;;;5034548;28;20493;-71
2023/05/23 04:21:03;;;;;;;88.90;47.10;;;;;;;;;;5035498;28;20469;-70
2023/05/23 04:23:29;;;;;;;89.90;48.75;;;;;;;;;;5035151;28;20479;-70
2023/05/23 04:25:56;;;;;;;99.72;49.70;;;;;;;;;;5035780;28;20022;-70
2023/05/23 04:28:22;;;;;;;94.10;48.22;;;;;;;;;;5036912;28;20040;-70
2023/05/23 04:30:49;;;;;;;93.63;49.13;;;;;;;;;;5035235;28;20022;-72
2023/05/23 04:33:16;;;;;;;95.35;47.33;;;;;;;;;;5034082;28;20028;-69
2023/05/23 04:35:42;;;;;;;102.90;48.97;;;;;;;;;;5034967;28;20045;-70
2023/05/23 04:38:08;;;;;;;86.97;45.55;;;;;;;;;;5035084;28;20029;-70
2023/05/23 04:40:35;;;;;;;105.15;51.28;;;;;;;;;;5034733;28;20021;-71
2023/05/23 04:43:01;;;;;;;94.50;48.13;;;;;;;;;;5033611;28;20506;-70
2023/05/23 04:45:27;;;;;;;99.18;49.08;;;;;;;;;;5034237;28;20076;-71
2023/05/23 04:47:56;;;;;;;86.13;47.90;;;;;;;;;;5033358;28;20091;-71
2023/05/23 04:50:22;;;;;;;90.90;49.78;;;;;;;;;;5033362;28;20022;-71
2023/05/23 04:52:48;;;;;;;91.70;47.88;;;;;;;;;;5033204;28;20533;-71
2023/05/23 04:55:14;;;;;;;87.60;46.28;;;;;;;;;;5033114;28;20437;-71
2023/05/23 04:57:40;;;;;;;84.20;47.65;;;;;;;;;;5032948;28;20029;-71
2023/05/23 05:00:10;;;;;;;88.10;44.03;;;;;;;;;;5033028;28;20039;-74
2023/05/23 05:02:37;;;;;;;92.93;47.08;;;;;;;;;;5033510;28;20491;-70
2023/05/23 05:05:03;;;;;;;100.53;50.13;;;;;;;;;;5033078;28;20104;-71
2023/05/23 05:07:29;;;;;;;87.75;46.85;;;;;;;;;;5032931;28;20116;-74
2023/05/23 05:09:55;;;;;;;99.15;51.70;;;;;;;;;;5033598;28;20076;-72
2023/05/23 05:12:21;;;;;;;96.35;49.83;;;;;;;;;;5032566;28;20039;-69
2023/05/23 05:14:47;;;;;;;108.28;53.22;;;;;;;;;;5033375;28;20022;-69
2023/05/23 05:17:13;;;;;;;103.85;50.28;;;;;;;;;;5033253;28;20025;-70
2023/05/23 05:19:39;;;;;;;108.45;51.70;;;;;;;;;;5032686;28;20022;-70
2023/05/23 05:22:06;;;;;;;95.38;50.20;;;;;;;;;;5032396;28;20049;-71
2023/05/23 05:24:32;;;;;;;116.82;55.05;;;;;;;;;;5032918;28;20033;-70
2023/05/23 05:26:58;;;;;;;129.10;59.15;;;;;;;;;;5032735;28;20030;-70
2023/05/23 05:29:25;;;;;;;133.57;58.88;;;;;;;;;;5032993;28;20147;-70
2023/05/23 05:31:52;;;;;;;118.07;54.75;;;;;;;;;;5032567;28;20025;-69
2023/05/23 05:34:18;;;;;;;114.55;54.88;;;;;;;;;;5033151;28;20029;-69
2023/05/23 05:36:47;;;;;;;131.13;63.95;;;;;;;;;;5032837;28;20152;-71
2023/05/23 05:39:13;;;;;;;121.95;59.33;;;;;;;;;;5033348;28;20025;-73
2023/05/23 05:41:39;;;;;;;113.25;56.00;;;;;;;;;;5032886;28;20030;-73
2023/05/23 05:44:06;;;;;;;106.97;57.10;;;;;;;;;;5032710;28;20021;-71
2023/05/23 05:46:32;;;;;;;124.18;58.70;;;;;;;;;;5032753;28;20029;-73
2023/05/23 05:48:58;;;;;;;121.35;55.05;;;;;;;;;;5031872;28;20167;-75
2023/05/23 05:51:24;;;;;;;125.70;57.00;;;;;;;;;;5032014;28;20022;-72
2023/05/23 05:53:50;;;;;;;122.97;56.83;;;;;;;;;;5032052;28;20033;-72
2023/05/23 05:56:16;;;;;;;113.75;55.20;;;;;;;;;;5032621;28;20383;-73
2023/05/23 05:58:42;;;;;;;111.90;55.15;;;;;;;;;;5026088;28;20022;-72
2023/05/23 06:01:08;;;;;;;117.35;57.15;;;;;;;;;;5032355;28;20025;-71
2023/05/23 06:03:34;;;;;;;120.47;56.28;;;;;;;;;;5031614;28;20525;-75
2023/05/23 06:06:00;;;;;;;113.22;54.85;;;;;;;;;;5031460;28;20022;-71
2023/05/23 06:08:26;;;;;;;110.57;55.50;;;;;;;;;;5031464;28;20053;-72
2023/05/23 06:10:52;;;;;;;112.22;54.55;;;;;;;;;;5031268;28;20336;-72
2023/05/23 06:13:18;;;;;;;124.80;58.33;;;;;;;;;;5031372;28;20029;-73
2023/05/23 06:15:45;;;;;;;118.38;55.83;;;;;;;;;;5031541;28;20032;-72
2023/05/23 06:18:11;;;;;;;111.22;56.22;;;;;;;;;;5025157;28;20476;-73
2023/05/23 06:20:37;;;;;;;110.63;55.28;;;;;;;;;;5028145;28;20032;-69
2023/05/23 06:23:04;;;;;;;111.75;55.63;;;;;;;;;;5031178;28;20112;-68
2023/05/23 06:25:30;;;;;;;105.28;53.08;;;;;;;;;;5031627;28;20104;-70
2023/05/23 06:27:56;;;;;;;111.63;51.75;;;;;;;;;;5031525;28;20040;-70
2023/05/23 06:30:23;;;;;;;102.55;53.58;;;;;;;;;;5031497;28;20025;-70
2023/05/23 06:32:49;;;;;;;98.25;51.60;;;;;;;;;;5035612;28;20033;-70
2023/05/23 06:35:16;;;;;;;97.60;49.97;;;;;;;;;;5032507;28;20028;-74
2023/05/23 06:37:44;;;;;;;87.07;48.08;;;;;;;;;;5031527;28;20028;-69
2023/05/23 06:40:11;;;;;;;87.43;48.53;;;;;;;;;;5032411;28;20096;-69
2023/05/23 06:42:37;;;;;;;85.38;47.95;;;;;;;;;;5030742;28;20064;-72
2023/05/23 06:45:03;;;;;;;83.22;42.53;;;;;;;;;;5031731;28;20069;-72
2023/05/23 06:47:29;;;;;;;53.72;33.97;;;;;;;;;;5031939;28;20022;-72
2023/05/23 06:49:55;;;;;;;50.35;28.95;;;;;;;;;;5031459;28;20021;-72
2023/05/23 06:52:21;;;;;;;36.47;21.70;;;;;;;;;;5030888;28;20029;-71
2023/05/23 06:54:47;;;;;;;37.78;23.27;;;;;;;;;;5030148;28;20075;-72
2023/05/23 06:57:13;;;;;;;38.47;21.13;;;;;;;;;;5029965;28;20456;-71
2023/05/23 06:59:39;;;;;;;32.28;19.15;;;;;;;;;;5030097;28;20041;-70
2023/05/23 07:02:05;;;;;;;32.92;19.00;;;;;;;;;;5031728;28;20026;-72
2023/05/23 07:04:31;;;;;;;31.55;18.00;;;;;;;;;;5032353;28;20533;-71
2023/05/23 07:06:57;;;;;;;28.15;17.23;;;;;;;;;;5030983;28;20116;-71
2023/05/23 07:09:23;;;;;;;33.60;18.95;;;;;;;;;;5031150;28;20132;-71
2023/05/23 07:11:49;;;;;;;33.50;16.30;;;;;;;;;;5028809;28;20092;-71
2023/05/23 07:14:15;;;;;;;24.40;15.05;;;;;;;;;;5031528;28;20017;-69
2023/05/23 07:16:41;;;;;;;26.45;13.88;;;;;;;;;;5029955;28;20491;-70
2023/05/23 07:19:07;;;;;;;18.67;13.10;;;;;;;;;;5029957;28;20029;-71
2023/05/23 07:21:33;;;;;;;28.60;12.43;;;;;;;;;;5030487;28;20018;-70
2023/05/23 07:23:59;;;;;;;24.88;12.52;;;;;;;;;;5031489;28;20444;-69
2023/05/23 07:26:26;;;;;;;19.55;12.30;;;;;;;;;;5033959;28;20022;-70
2023/05/23 07:28:52;;;;;;;21.42;12.05;;;;;;;;;;5033610;28;20026;-70
2023/05/23 07:31:18;;;;;;;28.35;13.65;;;;;;;;;;5034071;28;20038;-70
2023/05/23 07:33:44;;;;;;;22.00;12.13;;;;;;;;;;5033873;28;20017;-70
2023/05/23 07:36:10;;;;;;;23.15;12.77;;;;;;;;;;5033873;28;20392;-69
2023/05/23 07:38:36;;;;;;;19.08;10.45;;;;;;;;;;5033904;28;20463;-69
2023/05/23 07:41:02;;;;;;;19.10;10.23;;;;;;;;;;5033725;28;20040;-70
2023/05/23 07:43:28;;;;;;;18.05;10.95;;;;;;;;;;5033392;28;20041;-70
2023/05/23 07:45:54;;;;;;;18.55;10.48;;;;;;;;;;5035797;28;20097;-71
2023/05/23 07:48:20;;;;;;;18.58;9.75;;;;;;;;;;5035980;28;20029;-69
2023/05/23 07:50:47;;;;;;;17.95;9.60;;;;;;;;;;5033947;28;20477;-70
2023/05/23 07:53:13;;;;;;;18.77;9.40;;;;;;;;;;5033782;28;20527;-72
2023/05/23 07:55:39;;;;;;;20.08;10.93;;;;;;;;;;5034586;28;20030;-71
2023/05/23 07:58:06;;;;;;;16.20;9.07;;;;;;;;;;5034533;28;20033;-70
2023/05/23 08:00:32;;;;;;;14.65;8.65;;;;;;;;;;5034989;28;20033;-69
2023/05/23 08:02:58;;;;;;;19.75;9.85;;;;;;;;;;5031043;28;20013;-70
2023/05/23 08:05:24;;;;;;;13.27;9.10;;;;;;;;;;5035059;28;20067;-73
2023/05/23 08:07:52;;;;;;;16.10;8.95;;;;;;;;;;5034763;28;20112;-72
2023/05/23 08:10:18;;;;;;;18.45;10.70;;;;;;;;;;5035459;28;20029;-71
2023/05/23 08:12:44;;;;;;;16.05;8.48;;;;;;;;;;5034086;28;20033;-71
2023/05/23 08:15:10;;;;;;;13.27;7.97;;;;;;;;;;5034804;28;20112;-72
2023/05/23 08:17:36;;;;;;;17.65;9.82;;;;;;;;;;5034388;28;20029;-71
2023/05/23 08:20:03;;;;;;;17.40;8.23;;;;;;;;;;5033746;28;20066;-70
2023/05/23 08:22:30;;;;;;;15.65;7.22;;;;;;;;;;5033660;28;20026;-73
2023/05/23 08:24:56;;;;;;;19.08;7.82;;;;;;;;;;5034105;28;20021;-70
2023/05/23 08:27:22;;;;;;;14.32;8.73;;;;;;;;;;5034195;28;20378;-71
2023/05/23 08:29:48;;;;;;;13.50;9.00;;;;;;;;;;5034584;28;20028;-72
2023/05/23 08:32:14;;;;;;;14.45;8.70;;;;;;;;;;5034207;28;20036;-71
2023/05/23 08:34:40;;;;;;;12.45;8.55;;;;;;;;;;5033423;28;20391;-70
2023/05/23 08:37:07;;;;;;;14.82;9.27;;;;;;;;;;5031847;28;20107;-70
2023/05/23 08:39:33;;;;;;;15.60;9.43;;;;;;;;;;5032744;28;20032;-70
2023/05/23 08:41:59;;;;;;;15.75;9.52;;;;;;;;;;5031269;28;20065;-71
2023/05/23 08:44:25;;;;;;;17.42;11.10;;;;;;;;;;5033122;28;20060;-71
2023/05/23 08:46:52;;;;;;;26.08;15.45;;;;;;;;;;5033226;28;20041;-70
2023/05/23 08:49:18;;;;;;;22.85;14.30;;;;;;;;;;5033035;28;20037;-70
2023/05/23 08:51:45;;;;;;;17.73;11.10;;;;;;;;;;5032617;28;20364;-73
2023/05/23 08:54:14;;;;;;;18.77;10.23;;;;;;;;;;5033756;28;20022;-76
2023/05/23 08:56:40;;;;;;;17.80;9.70;;;;;;;;;;5030115;28;20815;-72
2023/05/23 08:59:07;;;;;;;26.75;11.02;;;;;;;;;;5033400;28;20025;-72
2023/05/23 09:01:34;;;;;;;21.27;11.20;;;;;;;;;;5033178;28;20071;-72
2023/05/23 09:04:03;;;;;;;27.70;12.93;;;;;;;;;;5033169;28;20079;-72
2023/05/23 09:06:31;;;;;;;25.33;12.68;;;;;;;;;;5033090;28;20068;-73
2023/05/23 09:08:57;;;;;;;27.17;13.48;;;;;;;;;;5032738;28;20033;-72
2023/05/23 09:11:23;;;;;;;26.20;11.32;;;;;;;;;;5033029;28;20079;-71
2023/05/23 09:13:50;;;;;;;24.92;11.25;;;;;;;;;;5034150;28;20037;-72
2023/05/23 09:16:19;;;;;;;26.73;10.18;;;;;;;;;;5034216;28;20025;-70
2023/05/23 09:18:45;;;;;;;25.25;10.95;;;;;;;;;;5031936;28;20060;-74
2023/05/23 09:21:12;;;;;;;20.20;10.25;;;;;;;;;;5036476;28;20075;-73
2023/05/23 09:23:39;;;;;;;24.58;10.57;;;;;;;;;;5033802;28;20022;-74
2023/05/23 09:26:09;;;;;;;19.67;10.55;;;;;;;;;;5034298;28;20033;-71
2023/05/23 09:28:36;;;;;;;24.05;11.13;;;;;;;;;;5033178;28;20029;-73
2023/05/23 09:31:03;;;;;;;26.80;11.50;;;;;;;;;;5033377;28;20033;-74
2023/05/23 09:33:48;;;;;;;21.75;10.68;;;;;;;;;;5032944;28;20037;-72
2023/05/23 09:36:14;;;;;;;;;;;;;;;;;;5033375;28;20101;-74
2023/05/23 09:38:40;;;;;;;22.25;8.38;;;;;;;;;;5033528;28;19958;-73
2023/05/23 09:41:07;;;;;;;15.00;7.40;;;;;;;;;;5032638;28;20025;-73
2023/05/23 09:43:33;;;;;;;22.88;7.43;;;;;;;;;;5032971;28;20553;-73
2023/05/23 09:46:11;;;;;;;17.85;6.95;;;;;;;;;;5032910;28;20472;-70
2023/05/23 09:48:37;;;;;;;14.13;7.35;;;;;;;;;;5033571;28;20022;-71
2023/05/23 09:51:12;;;;;;;16.75;6.80;;;;;;;;;;5032034;28;20021;-71
2023/05/23 09:53:38;;;;;;;22.35;8.55;;;;;;;;;;5032246;28;20476;-73
2023/05/23 09:56:05;;;;;;;11.07;6.15;;;;;;;;;;5032995;28;20026;-71
2023/05/23 09:58:32;;;;;;;19.42;7.47;;;;;;;;;;5033004;28;20032;-71
2023/05/23 10:01:02;;;;;;;11.57;6.05;;;;;;;;;;5032671;28;20037;-71
2023/05/23 10:03:36;;;;;;;18.55;6.88;;;;;;;;;;5032146;28;20025;-71
2023/05/23 10:06:08;;;;;;;14.52;5.55;;;;;;;;;;5031942;28;20420;-71
2023/05/23 10:08:36;;;;;;;15.40;5.93;;;;;;;;;;5031864;28;20030;-70
2023/05/23 10:11:15;;;;;;;23.08;6.32;;;;;;;;;;5031301;28;20036;-71
2023/05/23 10:13:45;;;;;;;13.90;5.10;;;;;;;;;;5031469;28;20090;-71
2023/05/23 10:16:17;;;;;;;19.35;4.55;;;;;;;;;;5032590;28;20022;-70
2023/05/23 10:18:43;;;;;;;18.73;5.03;;;;;;;;;;5033029;28;20060;-70
2023/05/23 10:21:12;;;;;;;9.63;4.05;;;;;;;;;;5032635;28;20419;-71
2023/05/23 10:23:38;;;;;;;11.88;4.45;;;;;;;;;;5032469;28;20036;-71
2023/05/23 10:26:04;;;;;;;12.25;4.55;;;;;;;;;;5033587;28;20025;-75
2023/05/23 10:28:31;;;;;;;19.52;5.10;;;;;;;;;;5034070;28;20104;-71
2023/05/23 10:30:58;;;;;;;18.73;5.05;;;;;;;;;;5033909;28;20033;-72
2023/05/23 10:33:26;;;;;;;24.15;5.72;;;;;;;;;;5033747;28;20091;-70
2023/05/23 10:36:07;;;;;;;16.95;4.20;;;;;;;;;;5034953;28;20018;-71
2023/05/23 10:38:51;;;;;;;15.63;4.43;;;;;;;;;;5034769;28;20060;-70
2023/05/23 10:41:33;;;;;;;18.20;3.85;;;;;;;;;;5034426;28;20533;-71
2023/05/23 10:44:18;;;;;;;19.77;4.78;;;;;;;;;;5032826;28;20459;-70
2023/05/23 10:46:54;;;;;;;20.02;4.63;;;;;;;;;;5031512;28;20396;-71
2023/05/23 10:49:36;;;;;;;22.98;4.47;;;;;;;;;;5031247;28;20471;-70
2023/05/23 10:52:02;;;;;;;24.35;5.97;;;;;;;;;;5031368;28;20030;-71
2023/05/23 10:54:34;;;;;;;20.85;4.60;;;;;;;;;;5031569;28;20061;-71
2023/05/23 10:57:04;;;;;;;22.40;5.15;;;;;;;;;;5031675;28;20025;-72
2023/05/23 10:59:30;;;;;;;25.85;5.53;;;;;;;;;;5033552;28;20483;-70
2023/05/23 11:01:56;;;;;;;21.27;4.90;;;;;;;;;;5035041;28;20045;-71
2023/05/23 11:04:28;;;;;;;17.17;4.25;;;;;;;;;;5035339;28;20487;-71
2023/05/23 11:06:55;;;;;;;23.38;5.53;;;;;;;;;;5035326;28;20033;-71
2023/05/23 11:09:22;;;;;;;23.63;4.93;;;;;;;;;;5034864;28;20517;-71
2023/05/23 11:11:51;;;;;;;22.75;4.80;;;;;;;;;;5034791;28;20371;-73
2023/05/23 11:14:17;;;;;;;24.33;4.72;;;;;;;;;;5035758;28;20029;-73
2023/05/23 11:16:47;;;;;;;24.05;5.28;;;;;;;;;;5035811;28;20033;-71
2023/05/23 11:19:20;;;;;;;22.67;4.22;;;;;;;;;;5035400;28;20506;-72
2023/05/23 11:21:49;;;;;;;25.83;4.38;;;;;;;;;;5035119;28;20391;-71
2023/05/23 11:24:19;;;;;;;19.88;4.05;;;;;;;;;;5035096;28;20080;-71
2023/05/23 11:26:58;;;;;;;20.30;4.38;;;;;;;;;;5035044;28;20030;-70
2023/05/23 11:29:25;;;;;;;15.77;4.07;;;;;;;;;;5034735;28;20033;-71
2023/05/23 11:31:51;;;;;;;25.20;5.53;;;;;;;;;;5035427;28;20025;-71
2023/05/23 11:34:18;;;;;;;25.00;6.55;;;;;;;;;;5035218;28;20033;-72
2023/05/23 11:36:44;;;;;;;21.58;5.20;;;;;;;;;;5034491;28;20029;-71
2023/05/23 11:39:11;;;;;;;28.50;6.72;;;;;;;;;;5034547;28;20388;-70
2023/05/23 11:41:37;;;;;;;21.73;5.22;;;;;;;;;;5034766;28;20096;-71
2023/05/23 11:44:10;;;;;;;23.00;5.63;;;;;;;;;;5034306;28;20495;-71
2023/05/23 11:46:36;;;;;;;25.30;6.25;;;;;;;;;;5034446;28;20036;-70
2023/05/23 11:49:02;;;;;;;30.42;6.75;;;;;;;;;;5034297;28;20112;-71
2023/05/23 11:51:28;;;;;;;27.60;5.78;;;;;;;;;;5034078;28;20387;-70
2023/05/23 11:54:00;;;;;;;24.48;5.38;;;;;;;;;;5034310;28;20113;-71
2023/05/23 11:56:26;;;;;;;25.15;4.85;;;;;;;;;;5034575;28;20104;-70
2023/05/23 11:58:52;;;;;;;22.65;4.72;;;;;;;;;;5034482;28;20495;-71
2023/05/23 12:01:18;;;;;;;31.02;5.90;;;;;;;;;;5032042;28;20049;-71
2023/05/23 12:03:46;;;;;;;23.17;6.20;;;;;;;;;;5034195;28;20021;-71
2023/05/23 12:06:16;;;;;;;25.35;5.78;;;;;;;;;;5044044;28;20121;-72
2023/05/23 12:08:42;;;;;;;26.20;5.63;;;;;;;;;;5053523;28;20025;-73
2023/05/23 12:11:08;;;;;;;25.75;5.40;;;;;;;;;;5052803;28;20433;-70
2023/05/23 12:13:34;;;;;;;27.40;5.22;;;;;;;;;;5053454;28;20100;-69
2023/05/23 12:16:01;;;;;;;21.10;4.82;;;;;;;;;;5053732;28;20021;-70
2023/05/23 12:18:30;;;;;;;27.92;5.25;;;;;;;;;;5053448;28;20033;-71
2023/05/23 12:21:00;;;;;;;23.50;5.40;;;;;;;;;;5053286;28;20049;-70
2023/05/23 12:23:28;;;;;;;33.00;6.40;;;;;;;;;;5053091;28;20029;-71
2023/05/23 12:25:56;;;;;;;20.40;5.07;;;;;;;;;;5053443;28;20447;-70
2023/05/23 12:28:34;;;;;;;22.90;5.45;;;;;;;;;;5053365;28;20037;-70
2023/05/23 12:31:07;;;;;;;24.77;4.78;;;;;;;;;;5053316;28;20037;-71
2023/05/23 12:33:37;;;;;;;26.73;5.25;;;;;;;;;;5053382;28;20071;-74
2023/05/23 12:36:03;;;;;;;23.92;5.40;;;;;;;;;;5053162;28;20028;-73
2023/05/23 12:38:29;;;;;;;19.05;4.70;;;;;;;;;;5053318;28;20029;-75
2023/05/23 12:41:11;;;;;;;32.35;5.10;;;;;;;;;;5053104;28;20032;-75
2023/05/23 12:43:38;;;;;;;26.88;6.85;;;;;;;;;;5054119;28;20025;-74
2023/05/23 12:46:05;;;;;;;26.83;5.13;;;;;;;;;;5053923;28;20044;-71
2023/05/23 12:48:32;;;;;;;24.17;5.38;;;;;;;;;;5053155;28;20033;-70
2023/05/23 12:50:58;;;;;;;19.60;5.00;;;;;;;;;;5053081;28;20025;-71
2023/05/23 12:53:25;;;;;;;28.60;5.47;;;;;;;;;;5053305;28;20021;-72
2023/05/23 12:55:51;;;;;;;20.67;5.50;;;;;;;;;;5050301;28;20021;-72
2023/05/23 12:58:17;;;;;;;33.15;5.70;;;;;;;;;;5031273;28;20028;-72
2023/05/23 13:00:43;;;;;;;24.35;5.30;;;;;;;;;;5026772;28;20037;-71
2023/05/23 13:03:09;;;;;;;23.10;4.95;;;;;;;;;;5033262;28;20121;-72
2023/05/23 13:05:35;;;;;;;24.35;4.82;;;;;;;;;;5033893;28;20033;-72
2023/05/23 13:08:02;;;;;;;22.42;5.63;;;;;;;;;;5034069;28;20564;-71
2023/05/23 13:10:28;;;;;;;23.38;4.95;;;;;;;;;;5034729;28;20048;-71
2023/05/23 13:12:54;;;;;;;21.15;5.15;;;;;;;;;;5034144;28;20395;-71
2023/05/23 13:15:20;;;;;;;28.20;5.50;;;;;;;;;;5033520;28;20029;-73
2023/05/23 13:17:47;;;;;;;28.10;5.88;;;;;;;;;;5025158;28;20060;-71
2023/05/23 13:20:13;;;;;;;23.60;4.80;;;;;;;;;;5031874;28;20051;-71
2023/05/23 13:22:39;;;;;;;32.55;5.63;;;;;;;;;;5032847;28;20543;-72
2023/05/23 13:25:07;;;;;;;26.35;5.82;;;;;;;;;;5033534;28;20025;-71
2023/05/23 13:27:33;;;;;;;23.02;5.80;;;;;;;;;;5033248;28;20033;-71
2023/05/23 13:29:59;;;;;;;29.70;5.00;;;;;;;;;;5033648;28;20091;-71
2023/05/23 13:32:25;;;;;;;34.70;5.18;;;;;;;;;;5031789;28;20025;-72
2023/05/23 13:34:51;;;;;;;35.50;5.35;;;;;;;;;;5033526;28;20450;-71
2023/05/23 13:37:17;;;;;;;23.50;5.00;;;;;;;;;;5033431;28;20125;-71
2023/05/23 13:39:43;;;;;;;31.48;5.85;;;;;;;;;;5033408;28;20040;-71
2023/05/23 13:42:09;;;;;;;28.27;4.80;;;;;;;;;;5033165;28;20425;-76
2023/05/23 13:44:35;;;;;;;20.92;4.38;;;;;;;;;;5033200;28;20590;-75
2023/05/23 13:47:11;;;;;;;28.80;5.85;;;;;;;;;;5032768;28;20021;-72
2023/05/23 13:49:37;;;;;;;28.40;5.38;;;;;;;;;;5032668;28;20470;-72
2023/05/23 13:52:03;;;;;;;35.75;5.47;;;;;;;;;;5033921;28;20029;-72
2023/05/23 13:54:29;;;;;;;26.42;5.30;;;;;;;;;;5035913;28;20048;-75
2023/05/23 13:56:56;;;;;;;25.95;5.32;;;;;;;;;;5033358;28;20033;-71
2023/05/23 13:59:21;;;;;;;25.45;4.75;;;;;;;;;;5035965;28;20022;-74
2023/05/23 14:01:47;;;;;;;24.23;5.82;;;;;;;;;;5032101;28;20044;-79
2023/05/23 14:04:13;;;;;;;29.90;6.25;;;;;;;;;;5033330;28;20029;-73
2023/05/23 14:06:39;;;;;;;26.80;5.00;;;;;;;;;;5034435;28;20064;-72
2023/05/23 14:09:06;;;;;;;39.08;6.55;;;;;;;;;;5033471;28;20186;-70
2023/05/23 14:11:33;;;;;;;30.15;5.13;;;;;;;;;;5032439;28;20018;-70
2023/05/23 14:13:59;;;;;;;29.00;4.70;;;;;;;;;;5032048;28;20093;-71
2023/05/23 14:16:25;;;;;;;34.83;6.43;;;;;;;;;;5032401;28;20032;-70
2023/05/23 14:18:51;;;;;;;34.13;5.85;;;;;;;;;;5031134;28;20028;-71
2023/05/23 14:21:17;;;;;;;41.67;6.57;;;;;;;;;;5032358;28;20022;-72